createdAt,value
2022-11-29T00:00:47.111Z,6.00
2022-11-29T00:03:14.848Z,6.10
2022-11-29T00:05:41.714Z,6.20
2022-11-29T00:08:08.343Z,6.30
2022-11-29T00:10:38.135Z,6.20
2022-11-29T00:13:05.310Z,6.10
2022-11-29T00:15:36.538Z,6.20
2022-11-29T00:18:03.502Z,6.20
2022-11-29T00:20:30.263Z,6.20
2022-11-29T00:22:56.897Z,6.20
2022-11-29T00:25:23.701Z,6.20
2022-11-29T00:27:51.396Z,6.20
2022-11-29T00:30:19.760Z,6.30
2022-11-29T00:32:46.336Z,6.30
2022-11-29T00:35:12.955Z,6.40
2022-11-29T00:37:39.592Z,6.40
2022-11-29T00:40:06.753Z,6.40
2022-11-29T00:42:33.712Z,6.40
2022-11-29T00:45:00.295Z,6.20
2022-11-29T00:47:27.008Z,6.20
2022-11-29T00:49:53.613Z,6.10
2022-11-29T00:52:20.209Z,6.20
2022-11-29T00:54:46.988Z,6.10
2022-11-29T00:57:13.716Z,6.10
2022-11-29T00:59:40.269Z,6.10
2022-11-29T01:02:06.893Z,6.10
2022-11-29T01:04:33.620Z,6.10
2022-11-29T01:07:00.251Z,6.20
2022-11-29T01:09:27.073Z,6.10
2022-11-29T01:11:53.646Z,6.10
2022-11-29T01:14:20.226Z,6.00
2022-11-29T01:16:46.974Z,6.00
2022-11-29T01:19:13.569Z,6.00
2022-11-29T01:21:41.138Z,6.10
2022-11-29T01:24:07.853Z,6.20
2022-11-29T01:26:34.424Z,6.20
2022-11-29T01:29:01.005Z,6.20
2022-11-29T01:31:35.871Z,6.30
2022-11-29T01:34:03.609Z,6.30
2022-11-29T01:36:30.874Z,6.30
2022-11-29T01:39:00.485Z,6.20
2022-11-29T01:41:30.134Z,6.30
2022-11-29T01:44:03.306Z,6.30
2022-11-29T01:46:33.649Z,6.30
2022-11-29T01:49:21.098Z,6.30
2022-11-29T01:52:14.272Z,6.40
2022-11-29T01:54:47.501Z,6.40
2022-11-29T01:57:15.250Z,6.40
2022-11-29T01:59:46.885Z,6.30
2022-11-29T02:02:30.648Z,6.40
2022-11-29T02:04:59.085Z,6.30
2022-11-29T02:07:26.162Z,6.30
2022-11-29T02:09:52.870Z,6.20
2022-11-29T02:12:19.431Z,6.20
2022-11-29T02:15:06.610Z,6.20
2022-11-29T02:17:55.578Z,6.20
2022-11-29T02:20:43.766Z,6.20
2022-11-29T02:23:25.388Z,6.20
2022-11-29T02:26:23.872Z,6.10
2022-11-29T02:29:08.512Z,6.20
2022-11-29T02:32:06.905Z,6.30
2022-11-29T02:34:52.267Z,6.30
2022-11-29T02:37:25.004Z,6.30
2022-11-29T02:40:06.824Z,6.40
2022-11-29T02:42:58.750Z,6.40
2022-11-29T02:45:58.095Z,6.40
2022-11-29T02:48:50.032Z,6.40
2022-11-29T02:51:41.437Z,6.40
2022-11-29T02:54:23.836Z,6.30
2022-11-29T02:57:19.293Z,6.30
2022-11-29T02:59:50.869Z,6.30
2022-11-29T03:02:51.038Z,6.40
2022-11-29T03:05:36.270Z,6.30
2022-11-29T03:08:36.161Z,6.30
2022-11-29T03:11:20.675Z,6.40
2022-11-29T03:14:05.431Z,6.40
2022-11-29T03:16:43.743Z,6.40
2022-11-29T03:19:35.734Z,6.40
2022-11-29T03:22:11.843Z,6.40
2022-11-29T03:24:54.974Z,6.40
2022-11-29T03:27:28.461Z,6.50
2022-11-29T03:30:01.449Z,6.60
2022-11-29T03:32:30.221Z,6.50
2022-11-29T03:35:20.970Z,6.40
2022-11-29T03:38:04.286Z,6.30
2022-11-29T03:40:49.078Z,6.30
2022-11-29T03:43:26.425Z,6.30
2022-11-29T03:46:11.021Z,6.40
2022-11-29T03:49:10.816Z,6.30
2022-11-29T03:51:56.210Z,6.30
2022-11-29T03:54:26.092Z,6.30
2022-11-29T03:56:53.662Z,6.40
2022-11-29T03:59:32.114Z,6.40
2022-11-29T04:02:19.911Z,6.40
2022-11-29T04:05:11.461Z,6.50
2022-11-29T04:07:50.795Z,6.50
2022-11-29T04:10:39.200Z,6.60
2022-11-29T04:13:40.755Z,6.60
2022-11-29T04:16:26.051Z,6.60
2022-11-29T04:18:59.559Z,6.60
2022-11-29T04:21:40.334Z,6.60
2022-11-29T04:24:47.083Z,6.50
2022-11-29T04:27:45.886Z,6.40
2022-11-29T04:30:58.639Z,6.40
2022-11-29T04:33:37.341Z,6.30
2022-11-29T04:36:25.828Z,6.30
2022-11-29T04:39:19.908Z,6.20
2022-11-29T04:42:26.471Z,6.20
2022-11-29T04:45:20.054Z,6.40
2022-11-29T04:48:02.752Z,6.50
2022-11-29T04:50:46.118Z,6.40
2022-11-29T04:53:57.914Z,6.40
2022-11-29T04:56:53.767Z,6.30
2022-11-29T04:59:36.210Z,6.30
2022-11-29T05:02:05.532Z,6.40
2022-11-29T05:04:32.121Z,6.40
2022-11-29T05:07:05.872Z,6.40
2022-11-29T05:09:32.452Z,6.50
2022-11-29T05:12:10.096Z,6.50
2022-11-29T05:14:54.636Z,6.60
2022-11-29T05:17:55.061Z,6.60
2022-11-29T05:20:35.511Z,6.60
2022-11-29T05:23:10.685Z,6.60
2022-11-29T05:25:50.268Z,6.60
2022-11-29T05:28:29.144Z,6.60
2022-11-29T05:31:08.317Z,6.50
2022-11-29T05:33:54.370Z,6.40
2022-11-29T05:36:41.035Z,6.50
2022-11-29T05:39:17.641Z,6.60
2022-11-29T05:42:32.212Z,6.60
2022-11-29T05:45:07.500Z,6.60
2022-11-29T05:47:43.996Z,6.50
2022-11-29T05:50:21.495Z,6.50
2022-11-29T05:53:14.313Z,6.50
2022-11-29T05:56:04.583Z,6.40
2022-11-29T05:58:31.145Z,6.40
2022-11-29T06:01:32.775Z,6.40
2022-11-29T06:04:09.130Z,6.40
2022-11-29T06:06:47.080Z,6.50
2022-11-29T06:09:27.870Z,6.50
2022-11-29T06:12:05.257Z,6.60
2022-11-29T06:15:04.548Z,6.70
2022-11-29T06:17:55.434Z,6.70
2022-11-29T06:20:38.016Z,6.70
2022-11-29T06:23:15.837Z,6.70
2022-11-29T06:26:03.633Z,6.70
2022-11-29T06:28:36.496Z,6.70
2022-11-29T06:31:16.376Z,6.60
2022-11-29T06:34:00.551Z,6.50
2022-11-29T06:36:31.511Z,6.50
2022-11-29T06:38:58.396Z,6.50
2022-11-29T06:41:25.452Z,6.60
2022-11-29T06:43:52.288Z,6.60
2022-11-29T06:46:55.455Z,6.70
2022-11-29T06:49:47.795Z,6.80
2022-11-29T06:52:25.797Z,6.60
2022-11-29T06:55:19.557Z,6.70
2022-11-29T06:58:01.309Z,6.70
2022-11-29T07:00:50.017Z,6.80
2022-11-29T07:03:35.767Z,6.80
2022-11-29T07:06:29.610Z,6.80
2022-11-29T07:09:02.928Z,6.70
2022-11-29T07:11:30.006Z,6.70
2022-11-29T07:13:56.980Z,6.80
2022-11-29T07:16:31.716Z,6.80
2022-11-29T07:19:20.448Z,6.90
2022-11-29T07:21:57.248Z,6.80
2022-11-29T07:24:38.747Z,6.80
2022-11-29T07:27:24.797Z,6.70
2022-11-29T07:30:01.744Z,6.70
2022-11-29T07:32:40.208Z,6.70
2022-11-29T07:35:12.882Z,6.70
2022-11-29T07:38:12.145Z,6.70
2022-11-29T07:40:58.837Z,6.90
2022-11-29T07:43:41.084Z,6.90
2022-11-29T07:46:07.941Z,6.90
2022-11-29T07:48:34.533Z,6.90
2022-11-29T07:51:01.836Z,6.90
2022-11-29T07:53:30.640Z,6.90
2022-11-29T07:55:58.040Z,6.90
2022-11-29T07:58:24.937Z,6.90
2022-11-29T08:00:51.676Z,6.90
2022-11-29T08:03:20.634Z,6.80
2022-11-29T08:05:47.871Z,6.80
2022-11-29T08:08:15.036Z,6.80
2022-11-29T08:10:41.756Z,6.90
2022-11-29T08:13:08.442Z,6.90
2022-11-29T08:15:35.429Z,6.90
2022-11-29T08:18:02.734Z,6.90
2022-11-29T08:20:29.374Z,6.90
2022-11-29T08:22:59.732Z,7.00
2022-11-29T08:25:27.812Z,7.00
2022-11-29T08:27:55.109Z,7.10
2022-11-29T08:30:22.575Z,7.10
2022-11-29T08:32:51.810Z,7.10
2022-11-29T08:35:20.635Z,7.10
2022-11-29T08:37:47.589Z,7.10
2022-11-29T08:40:15.297Z,7.20
2022-11-29T08:42:42.082Z,7.20
2022-11-29T08:45:10.082Z,7.30
2022-11-29T08:47:38.029Z,7.30
2022-11-29T08:50:11.992Z,7.30
2022-11-29T08:53:03.040Z,7.30
2022-11-29T08:55:47.944Z,7.30
2022-11-29T08:58:15.489Z,7.40
2022-11-29T09:00:45.283Z,7.40
2022-11-29T09:03:30.783Z,7.40
2022-11-29T09:05:57.589Z,7.40
2022-11-29T09:08:24.282Z,7.30
2022-11-29T09:10:51.119Z,7.30
2022-11-29T09:13:18.047Z,7.30
2022-11-29T09:15:44.768Z,7.20
2022-11-29T09:18:11.503Z,7.20
2022-11-29T09:20:38.272Z,7.20
2022-11-29T09:23:04.921Z,7.10
2022-11-29T09:25:31.554Z,7.20
2022-11-29T09:28:01.683Z,7.20
2022-11-29T09:30:31.599Z,7.10
2022-11-29T09:33:02.691Z,7.20
2022-11-29T09:35:29.605Z,7.20
2022-11-29T09:37:56.256Z,7.20
2022-11-29T09:40:37.124Z,7.20
2022-11-29T09:43:17.025Z,7.20
2022-11-29T09:45:47.045Z,7.10
2022-11-29T09:48:31.786Z,7.10
2022-11-29T09:51:17.272Z,7.20
2022-11-29T09:53:55.518Z,7.30
2022-11-29T09:56:30.685Z,7.30
2022-11-29T09:59:05.503Z,7.30
2022-11-29T10:01:40.533Z,7.40
2022-11-29T10:04:16.706Z,7.40
2022-11-29T10:06:54.397Z,7.40
2022-11-29T10:09:38.888Z,7.40
2022-11-29T10:12:26.249Z,7.30
2022-11-29T10:14:56.384Z,7.40
2022-11-29T10:17:36.949Z,7.40
2022-11-29T10:20:11.260Z,7.40
2022-11-29T10:22:41.209Z,7.50
2022-11-29T10:25:11.968Z,7.40
2022-11-29T10:27:40.409Z,7.50
2022-11-29T10:30:13.976Z,7.60
2022-11-29T10:32:42.236Z,7.60
2022-11-29T10:35:18.533Z,7.50
2022-11-29T10:38:01.464Z,7.50
2022-11-29T10:40:35.554Z,7.40
2022-11-29T10:43:02.724Z,7.50
2022-11-29T10:45:33.820Z,7.50
2022-11-29T10:48:39.108Z,7.50
2022-11-29T10:51:16.595Z,7.40
2022-11-29T10:53:45.269Z,7.30
2022-11-29T10:56:34.248Z,7.30
2022-11-29T10:59:05.272Z,7.30
2022-11-29T11:01:35.569Z,7.30
2022-11-29T11:04:04.175Z,7.30
2022-11-29T11:06:48.191Z,7.30
2022-11-29T11:09:32.448Z,7.30
2022-11-29T11:12:04.765Z,7.30
2022-11-29T11:14:40.685Z,7.30
2022-11-29T11:17:26.072Z,7.30
2022-11-29T11:19:57.375Z,7.30
2022-11-29T11:22:25.708Z,7.40
2022-11-29T11:24:59.052Z,7.40
2022-11-29T11:27:39.926Z,7.30
2022-11-29T11:30:18.514Z,7.40
2022-11-29T11:33:08.337Z,7.40
2022-11-29T11:35:37.062Z,7.40
2022-11-29T11:38:03.675Z,7.40
2022-11-29T11:40:30.882Z,7.40
2022-11-29T11:43:00.391Z,7.30
2022-11-29T11:45:32.695Z,7.40
2022-11-29T11:48:04.884Z,7.50
2022-11-29T11:50:37.241Z,7.50
2022-11-29T11:53:23.819Z,7.60
2022-11-29T11:56:08.812Z,7.60
2022-11-29T11:58:44.688Z,7.50
2022-11-29T12:01:16.872Z,7.50
2022-11-29T12:04:05.625Z,7.50
2022-11-29T12:06:43.220Z,7.50
2022-11-29T12:09:25.196Z,7.50
2022-11-29T12:12:06.882Z,7.50
2022-11-29T12:14:57.664Z,7.50
2022-11-29T12:17:34.442Z,7.40
2022-11-29T12:20:21.153Z,7.40
2022-11-29T12:22:51.704Z,7.40
2022-11-29T12:25:33.092Z,7.40
2022-11-29T12:27:59.840Z,7.40
2022-11-29T12:30:26.822Z,7.40
2022-11-29T12:33:08.648Z,7.40
2022-11-29T12:35:54.205Z,7.40
2022-11-29T12:38:41.417Z,7.50
2022-11-29T12:41:26.567Z,7.50
2022-11-29T12:44:07.464Z,7.40
2022-11-29T12:46:35.303Z,7.40
2022-11-29T12:49:17.455Z,7.40
2022-11-29T12:51:57.747Z,7.40
2022-11-29T12:54:35.763Z,7.40
2022-11-29T12:57:07.949Z,7.40
2022-11-29T12:59:50.004Z,7.40
2022-11-29T13:02:54.110Z,7.40
2022-11-29T13:05:29.683Z,7.50
2022-11-29T13:08:18.837Z,7.50
2022-11-29T13:11:20.585Z,7.60
2022-11-29T13:14:19.829Z,7.60
2022-11-29T13:17:03.670Z,7.70
2022-11-29T13:20:01.424Z,7.70
2022-11-29T13:22:55.966Z,7.60
2022-11-29T13:25:39.613Z,7.60
2022-11-29T13:28:32.144Z,7.70
2022-11-29T13:31:21.711Z,7.70
2022-11-29T13:34:15.536Z,7.50
2022-11-29T13:36:44.977Z,7.50
2022-11-29T13:39:45.765Z,7.50
2022-11-29T13:42:34.939Z,7.40
2022-11-29T13:45:15.512Z,7.50
2022-11-29T13:47:54.410Z,7.50
2022-11-29T13:50:44.188Z,7.50
2022-11-29T13:53:17.226Z,7.50
2022-11-29T13:56:00.951Z,7.50
2022-11-29T13:58:39.013Z,7.50
2022-11-29T14:01:12.109Z,7.50
2022-11-29T14:03:42.218Z,7.50
2022-11-29T14:06:11.724Z,7.50
2022-11-29T14:09:19.111Z,7.50
2022-11-29T14:11:49.023Z,7.50
2022-11-29T14:14:15.562Z,7.60
2022-11-29T14:16:42.084Z,7.50
2022-11-29T14:19:08.609Z,7.60
2022-11-29T14:22:02.960Z,7.60
2022-11-29T14:24:32.589Z,7.60
2022-11-29T14:27:14.272Z,7.50
2022-11-29T14:29:49.981Z,7.50
2022-11-29T14:32:53.184Z,7.60
2022-11-29T14:35:37.312Z,7.60
2022-11-29T14:38:20.843Z,7.60
2022-11-29T14:41:19.796Z,7.60
2022-11-29T14:43:46.560Z,7.60
2022-11-29T14:46:16.272Z,7.70
2022-11-29T14:48:55.230Z,7.70
2022-11-29T14:51:24.079Z,7.70
2022-11-29T14:54:14.679Z,7.80
2022-11-29T14:56:43.396Z,7.70
2022-11-29T14:59:54.850Z,7.70
2022-11-29T15:02:32.331Z,7.60
2022-11-29T15:05:18.437Z,7.70
2022-11-29T15:07:55.336Z,7.60
2022-11-29T15:10:27.153Z,7.60
2022-11-29T15:12:54.379Z,7.60
2022-11-29T15:15:31.534Z,7.70
2022-11-29T15:18:21.340Z,7.70
2022-11-29T15:21:18.223Z,7.80
2022-11-29T15:23:44.925Z,7.80
2022-11-29T15:26:18.316Z,7.70
2022-11-29T15:28:45.302Z,7.80
2022-11-29T15:31:16.472Z,7.80
2022-11-29T15:33:45.785Z,7.80
2022-11-29T15:36:15.188Z,7.80
2022-11-29T15:38:52.974Z,7.80
2022-11-29T15:41:20.737Z,7.80
2022-11-29T15:43:52.006Z,7.80
2022-11-29T15:46:27.765Z,7.70
2022-11-29T15:48:55.239Z,7.80
2022-11-29T15:51:28.233Z,7.70
2022-11-29T15:54:13.191Z,7.70
2022-11-29T15:56:45.602Z,7.70
2022-11-29T15:59:33.596Z,7.70
2022-11-29T16:02:20.381Z,7.70
2022-11-29T16:04:49.461Z,7.60
2022-11-29T16:07:18.140Z,7.60
2022-11-29T16:09:49.136Z,7.60
2022-11-29T16:12:17.506Z,7.60
2022-11-29T16:14:56.385Z,7.60
2022-11-29T16:17:30.381Z,7.50
2022-11-29T16:20:23.577Z,7.50
2022-11-29T16:23:13.708Z,7.50
2022-11-29T16:26:02.374Z,7.50
2022-11-29T16:28:36.030Z,7.60
2022-11-29T16:31:04.677Z,7.60
2022-11-29T16:33:31.648Z,7.50
2022-11-29T16:36:17.408Z,7.60
2022-11-29T16:38:49.937Z,7.60
2022-11-29T16:41:34.316Z,7.60
2022-11-29T16:44:03.470Z,7.60
2022-11-29T16:46:34.524Z,7.50
2022-11-29T16:49:21.427Z,7.50
2022-11-29T16:51:48.346Z,7.50
2022-11-29T16:54:24.071Z,7.50
2022-11-29T16:56:53.072Z,7.60
2022-11-29T16:59:26.555Z,7.60
2022-11-29T17:01:55.633Z,7.60
2022-11-29T17:04:24.208Z,7.60
2022-11-29T17:06:52.612Z,7.60
2022-11-29T17:09:26.013Z,7.70
2022-11-29T17:11:54.124Z,7.70
2022-11-29T17:14:20.793Z,7.70
2022-11-29T17:16:51.513Z,7.60
2022-11-29T17:19:20.724Z,7.60
2022-11-29T17:21:48.559Z,7.50
2022-11-29T17:24:17.946Z,7.60
2022-11-29T17:26:45.221Z,7.50
2022-11-29T17:29:13.443Z,7.60
2022-11-29T17:31:42.282Z,7.60
2022-11-29T17:34:09.104Z,7.60
2022-11-29T17:36:36.141Z,7.60
2022-11-29T17:39:04.313Z,7.60
2022-11-29T17:41:32.724Z,7.60
2022-11-29T17:43:59.847Z,7.60
2022-11-29T17:46:29.673Z,7.60
2022-11-29T17:48:59.305Z,7.60
2022-11-29T17:51:51.114Z,7.60
2022-11-29T17:54:13.182Z,7.60
2022-11-29T17:56:39.852Z,7.60
2022-11-29T17:59:06.588Z,7.50
2022-11-29T18:01:35.497Z,7.50
2022-11-29T18:04:04.319Z,7.50
2022-11-29T18:06:35.711Z,7.50
2022-11-29T18:09:03.794Z,7.50
2022-11-29T18:11:42.981Z,7.60
2022-11-29T18:14:13.380Z,7.60
2022-11-29T18:16:40.245Z,7.60
2022-11-29T18:19:10.322Z,7.60
2022-11-29T18:21:37.886Z,7.50
2022-11-29T18:24:06.377Z,7.50
2022-11-29T18:26:34.736Z,7.60
2022-11-29T18:29:01.513Z,7.60
2022-11-29T18:31:33.962Z,7.60
2022-11-29T18:34:06.080Z,7.60
2022-11-29T18:36:35.313Z,7.70
2022-11-29T18:39:11.194Z,7.60
2022-11-29T18:41:38.878Z,7.60
2022-11-29T18:44:08.541Z,7.60
2022-11-29T18:46:37.213Z,7.60
2022-11-29T18:49:08.215Z,7.60
2022-11-29T18:51:36.163Z,7.60
2022-11-29T18:54:03.298Z,7.60
2022-11-29T18:56:32.589Z,7.50
2022-11-29T18:59:10.002Z,7.60
2022-11-29T19:01:40.828Z,7.60
2022-11-29T19:04:09.050Z,7.60
2022-11-29T19:06:39.747Z,7.60
2022-11-29T19:09:11.025Z,7.50
2022-11-29T19:11:37.810Z,7.50
2022-11-29T19:14:10.992Z,7.60
2022-11-29T19:16:39.004Z,7.60
2022-11-29T19:19:05.641Z,7.60
2022-11-29T19:21:34.228Z,7.60
2022-11-29T19:24:03.592Z,7.60
2022-11-29T19:26:31.751Z,7.50
2022-11-29T19:29:00.759Z,7.40
2022-11-29T19:31:27.802Z,7.40
2022-11-29T19:33:55.274Z,7.40
2022-11-29T19:36:30.237Z,7.50
2022-11-29T19:38:57.637Z,7.60
2022-11-29T19:41:30.418Z,7.50
2022-11-29T19:43:59.242Z,7.50
2022-11-29T19:46:31.101Z,7.50
2022-11-29T19:48:59.356Z,7.40
2022-11-29T19:51:27.885Z,7.40
2022-11-29T19:53:57.539Z,7.50
2022-11-29T19:56:25.149Z,7.40
2022-11-29T19:58:52.224Z,7.40
2022-11-29T20:01:25.093Z,7.50
2022-11-29T20:03:54.858Z,7.40
2022-11-29T20:06:21.849Z,7.50
2022-11-29T20:08:48.490Z,7.40
2022-11-29T20:11:22.401Z,7.50
2022-11-29T20:13:55.226Z,7.50
2022-11-29T20:16:22.671Z,7.50
2022-11-29T20:18:51.345Z,7.50
2022-11-29T20:21:25.064Z,7.50
2022-11-29T20:23:56.632Z,7.50
2022-11-29T20:26:23.715Z,7.50
2022-11-29T20:28:50.407Z,7.60
2022-11-29T20:31:22.472Z,7.50
2022-11-29T20:33:51.338Z,7.60
2022-11-29T20:36:42.253Z,7.50
2022-11-29T20:39:32.036Z,7.60
2022-11-29T20:42:07.277Z,7.60
2022-11-29T20:44:39.431Z,7.70
2022-11-29T20:47:18.143Z,7.70
2022-11-29T20:49:45.341Z,7.70
2022-11-29T20:52:38.150Z,7.60
2022-11-29T20:55:05.554Z,7.70
2022-11-29T20:57:32.356Z,7.70
2022-11-29T20:59:59.994Z,7.70
2022-11-29T21:02:26.596Z,7.70
2022-11-29T21:04:53.214Z,7.70
2022-11-29T21:07:19.839Z,7.80
2022-11-29T21:09:46.679Z,7.70
2022-11-29T21:12:13.662Z,7.70
2022-11-29T21:14:40.563Z,7.60
2022-11-29T21:17:08.713Z,7.70
2022-11-29T21:19:35.872Z,7.60
2022-11-29T21:22:12.397Z,7.60
2022-11-29T21:25:00.186Z,7.60
2022-11-29T21:27:30.869Z,7.60
2022-11-29T21:29:57.997Z,7.50
2022-11-29T21:32:26.713Z,7.50
2022-11-29T21:34:53.564Z,7.50
2022-11-29T21:37:25.076Z,7.50
2022-11-29T21:39:53.038Z,7.50
2022-11-29T21:42:20.221Z,7.50
2022-11-29T21:44:47.451Z,7.50
2022-11-29T21:47:14.281Z,7.50
2022-11-29T21:49:40.910Z,7.50
2022-11-29T21:52:07.550Z,7.50
2022-11-29T21:54:34.250Z,7.50
2022-11-29T21:57:01.628Z,7.50
2022-11-29T21:59:28.424Z,7.50
2022-11-29T22:01:55.465Z,7.50
2022-11-29T22:04:23.281Z,7.50
2022-11-29T22:06:49.876Z,7.40
2022-11-29T22:09:16.513Z,7.50
2022-11-29T22:11:43.376Z,7.50
2022-11-29T22:14:18.675Z,7.50
2022-11-29T22:17:01.365Z,7.40
2022-11-29T22:19:30.600Z,7.50
2022-11-29T22:21:59.809Z,7.50
2022-11-29T22:24:28.917Z,7.50
2022-11-29T22:26:56.301Z,7.60
2022-11-29T22:29:23.453Z,7.50
2022-11-29T22:31:52.857Z,7.60
2022-11-29T22:34:20.500Z,7.70
2022-11-29T22:36:47.406Z,7.70
2022-11-29T22:39:14.421Z,7.70
2022-11-29T22:41:41.270Z,7.60
2022-11-29T22:44:08.084Z,7.60
2022-11-29T22:46:39.279Z,7.70
2022-11-29T22:49:05.980Z,7.70
2022-11-29T22:51:35.405Z,7.50
2022-11-29T22:54:05.167Z,7.50
2022-11-29T22:56:37.289Z,7.50
2022-11-29T22:59:04.740Z,7.50
2022-11-29T23:01:34.614Z,7.60
2022-11-29T23:04:03.955Z,7.40
2022-11-29T23:06:33.140Z,7.30
2022-11-29T23:09:06.034Z,7.30
2022-11-29T23:11:32.848Z,7.30
2022-11-29T23:14:00.402Z,7.30
2022-11-29T23:16:28.877Z,7.20
2022-11-29T23:18:58.113Z,7.20
2022-11-29T23:21:30.100Z,7.20
2022-11-29T23:23:58.917Z,7.20
2022-11-29T23:26:39.434Z,7.30
2022-11-29T23:29:07.956Z,7.30
2022-11-29T23:31:34.664Z,7.30
2022-11-29T23:34:02.455Z,7.30
2022-11-29T23:36:29.204Z,7.30
2022-11-29T23:38:55.900Z,7.30
2022-11-29T23:41:22.573Z,7.40
2022-11-29T23:43:49.289Z,7.40
2022-11-29T23:46:21.500Z,7.40
2022-11-29T23:48:48.327Z,7.50
2022-11-29T23:51:16.013Z,7.40
2022-11-29T23:53:42.781Z,7.40
2022-11-29T23:56:14.663Z,7.40
2022-11-29T23:58:42.005Z,7.20
